19 de maio de 2022

Tempo Código Clima Temp. Visão Nuvens Vento METAR/SPECI
12:43
M
9 °C 32 km 1.800 ft 360°   360° 17 23 kt METAR CYEG 191843Z 36017G23KT 20SM FEW011 BKN018 BKN025 09/07 A2972 RMK SF1SC4SC2 SLP085 DENSITY ALT 2500FT
12:34
M
8 °C 32 km 1.700 ft 350°   350° 16 kt METAR CYEG 191834Z 35016KT 20SM -RA FEW011 BKN017 BKN025 08/06 A2972 RMK SF1SC4SC2 SLP085 DENSITY ALT 2400FT
12:00
M
7 °C 8,0 km 1.700 ft 350°   350° 16 24 kt METAR CYEG 191800Z 35016G24KT 5SM -RA BR SCT011 BKN017 OVC025 07/06 A2971 RMK SF3SC4SC1 SLP079
11:00
M
6 °C 24 km 1.700 ft 360°   360° 18 kt METAR CYEG 191700Z 36018KT 15SM -RA SCT011 BKN017 OVC024 06/05 A2967 RMK SF4SC3SC1 SLP069
10:00
M
5 °C 19 km 1.500 ft 360°   360° 14 19 kt METAR CYEG 191600Z CCA 36014G19KT 12SM -RA SCT011 BKN015 OVC024 05/04 A2964 RMK SF3SF4SC1 SLP060
09:41
M
5 °C 10 km 1.500 ft 350°   350° 13 kt METAR CYEG 191541Z CCA 35013KT 6SM -RA BR SCT011 BKN015 OVC024 05/04 A2963 RMK SF4SF2SC2 SLP056
09:06
I
6 °C 10 km 800 ft 010°   010° 15 22 kt METAR CYEG 191506Z CCA 01015G22KT 6SM -RA BR BKN008 BKN015 OVC024 06/04 A2961 RMK SF5SF1SC2 SLP049
08:48
M
6 °C 24 km 1.100 ft 350°   350° 13 19 kt METAR CYEG 191448Z 35013G19KT 15SM -RA BKN011 BKN015 OVC024 06/04 A2960 RMK SF5SF1SC2 SLP046
08:00
I
5 °C 24 km 900 ft 330°   330° 15 24 kt METAR CYEG 191400Z 33015G24KT 15SM -RA BKN009 OVC024 05/04 A2959 RMK SC6SC2 SLP040
07:00
I
4 °C 24 km 700 ft 320°   320° 15 kt METAR CYEG 191300Z 32015KT 15SM -RA BKN007 BKN011 OVC021 04/04 A2957 RMK SF6SC1SC1 SLP034
06:36
M
4 °C 24 km 1.100 ft 320°   320° 16 22 kt METAR CYEG 191236Z 32016G22KT 15SM -RA SCT007 OVC011 04/03 A2957 RMK SF4SC4 SLP031
06:00
M
4 °C 16 km 1.100 ft 320°   320° 15 20 kt METAR CYEG 191200Z 32015G20KT 10SM -RA BKN011 OVC020 04/03 A2956 RMK SC7SC1 SLP027
05:00
M
5 °C 24 km 1.900 ft 320°   320° 13 18 kt METAR CYEG 191100Z 32013G18KT 15SM -RA SCT008 OVC019 05/04 A2954 RMK SF3SC5 SLP022
04:00
I
5 °C 24 km 600 ft 330°   330° 14 kt METAR CYEG 191000Z 33014KT 15SM -RA BKN006 OVC012 05/05 A2954 RMK SF5SC3 SLP021
03:00
V
5 °C 24 km 3.400 ft 320°   320° 14 kt METAR CYEG 190900Z 32014KT 15SM -RA SCT007 OVC034 05/05 A2953 RMK ST4SC4 SLP017
02:00
I
6 °C 24 km 900 ft 340°   340° 12 kt METAR CYEG 190800Z 34012KT 15SM -RA BKN009 OVC016 06/05 A2953 RMK SC5SC3 SLP015
01:00
I
6 °C 24 km 900 ft 340°   340° 12 kt METAR CYEG 190700Z 34012KT 15SM -RA BKN009 OVC024 06/05 A2953 RMK SC6SC2 SLP012 DENSITY ALT 2400FT
00:55
M
6 °C 24 km 1.000 ft 340°   340° 11 kt METAR CYEG 190655Z 34011KT 15SM -RA BKN010 OVC024 06/05 A2953 RMK SC5SC3 SLP012 DENSITY ALT 2400FT
00:00
M
7 °C 32 km 2.400 ft 330°   330° 9 kt METAR CYEG 190600Z 33009KT 20SM SCT012 OVC024 07/05 A2953 RMK SC4SC4 SLP012 DENSITY ALT 2400FT

18 de maio de 2022

Tempo Código Clima Temp. Visão Nuvens Vento METAR/SPECI
23:00
M
7 °C 32 km 2.800 ft 350°   350° 8 kt METAR CYEG 190500Z 35008KT 20SM SCT015 OVC028 07/05 A2953 RMK SC3SC5 SLP013 DENSITY ALT 2500FT
22:18
M
7 °C 32 km 2.400 ft 020°   020° 7 kt METAR CYEG 190418Z 02007KT 20SM BKN024 OVC035 07/06 A2952 RMK SC6SC2 SLP013 DENSITY ALT 2500FT
22:00
M
7 °C 24 km 2.400 ft 010°   010° 8 kt METAR CYEG 190400Z 01008KT 15SM -RA BKN024 OVC035 07/06 A2952 RMK SC5SC3 SLP013 DENSITY ALT 2500FT
21:00
V
7 °C 24 km 3.000 ft 010°   010° 5 kt METAR CYEG 190300Z 01005KT 15SM -RA BKN030 OVC040 07/06 A2952 RMK SC6SC2 SLP014 DENSITY ALT 2500FT
20:00
V
8 °C 10 km 3.500 ft 050°   050° 9 kt METAR CYEG 190200Z 05009KT 6SM -RA OVC035 08/05 A2952 RMK SC8 SLP017 DENSITY ALT 2600FT
19:23
V
9 °C 24 km 5.800 ft 030°   030° 11 kt METAR CYEG 190123Z 03011KT 15SM -RA BKN058 OVC140 09/03 A2951 RMK SC6AS2 SLP010 DENSITY ALT 2800FT
19:00
V
10 °C 32 km 8.500 ft 050°   050° 14 kt METAR CYEG 190100Z 05014KT 20SM SCT040 BKN085 BKN140 OVC220 10/04 A2950 RMK SC3AC3AS1CI1 TCU EMBD SH DIST SE-SW SLP008 DENSITY ALT 2800FT
18:40
V
10 °C 32 km 8.500 ft 060°   060° 11 17 kt METAR CYEG 190040Z 06011G17KT 20SM SCT040 BKN085 OVC120 10/04 A2949 RMK SC3AC3AS2 SH DIST S-SW SLP007 DENSITY ALT 2900FT
18:11
V
11 °C 32 km 4.000 ft 070°   070° 12 18 kt METAR CYEG 190011Z 07012G18KT 20SM -SHRA BKN040 OVC100 11/03 A2949 RMK SC5AS3 HVY SH DIST SW QUAD SLP008 DENSITY ALT 3000FT
18:00
V
11 °C 32 km 6.000 ft 060°   060° 14 kt METAR CYEG 190000Z 06014KT 20SM BKN060 OVC120 11/03 A2949 RMK SC5AS3 TCU EMBD SH DIST SW QUAD SLP007 DENSITY ALT 3000FT
17:30
V
11 °C 32 km 12.000 ft 070°   070° 12 kt METAR CYEG 182330Z 07012KT 20SM FEW045 SCT080 BKN120 OVC220 11/02 A2951 RMK SC1AC3AS4CI1 SC TR WSHFT 2313 TCU EMBD SH DIST SE-SW-W PRESFR SLP014 DENSITY ALT 3000FT
17:00
V
11 °C 32 km 11.000 ft 120°   120° 9 15 kt METAR CYEG 182300Z CCA 12009G15KT 20SM FEW030 SCT045 BKN110 BKN220 11/01 A2953 RMK SC1SC3AS3CI1 CI TR TCU EMBD SH DIST SE-SW-W SLP022 DENSITY ALT 3000FT
16:48
V
11 °C 32 km 4.500 ft 120°   120° 10 kt METAR CYEG 182248Z 12010KT 20SM FEW030 BKN045 BKN120 11/02 A2954 RMK SC2SC4AS1 TCU EMBD SH DIST SW QUAD PRESFR SLP025 DENSITY ALT 3000FT
16:00
V
10 °C 24 km 4.500 ft 160°   160° 14 kt METAR CYEG 182200Z 16014KT 15SM -RA FEW015 SCT030 OVC045 10/03 A2959 RMK SC1SC4SC4 LWR SC TR CVCTV CLD EMBD SLP042 DENSITY ALT 2800FT
15:00
V
12 °C 32 km 4.000 ft 180°   180° 17 30 kt METAR CYEG 182100Z 18017G30KT 20SM -SHRA OVC040 12/M00 A2962 RMK SC8 CVCTV CLD EMBD SLP048 DENSITY ALT 3000FT
14:33
V
13 °C 32 km 4.500 ft 200°   200° 18 24 kt METAR CYEG 182033Z 20018G24KT 130V210 20SM -SHRA OVC045 13/M02 A2962 RMK SC8 CVCTV CLD EMBD SLP050 DENSITY ALT 3100FT
14:24
V
13 °C 32 km 6.000 ft 170°   170° 9 21 kt METAR CYEG 182024Z 17009G21KT 20SM VCSH OVC060 13/M03 A2963 RMK SC8 CVCTV CLD EMBD SLP053 DENSITY ALT 3000FT
14:00
V
13 °C 32 km 6.000 ft 190°   190° 13 24 kt METAR CYEG 182000Z 19013G24KT 20SM -SHRA BKN060 OVC120 13/M02 A2965 RMK SC7AS1 CVCTV CLD EMBD SLP059 DENSITY ALT 3000FT
13:45
V
13 °C 32 km 6.000 ft 160°   160° 14 24 kt METAR CYEG 181945Z 16014G24KT 130V220 20SM -SHRA BKN060 OVC120 13/M03 A2966 RMK SC6AS2 CVCTV CLD EMBD PRESFR SLP061 DENSITY ALT 3000FT
13:00
V
14 °C 32 km 12.000 ft 150°   150° 16 21 kt METAR CYEG 181900Z 15016G21KT 20SM SCT068 BKN120 OVC200 14/M04 A2969 RMK CU4AS3CS1 VIRGA DIST SW QUAD SLP071 DENSITY ALT 3100FT
12:00
V
14 °C 32 km 18.000 ft 130°   130° 12 20 kt METAR CYEG 181800Z 13012G20KT 20SM FEW068 SCT140 BKN180 OVC220 14/M03 A2971 RMK CU1AC2AS2CS3 PRESFR SLP077 DENSITY ALT 3100FT
11:00
V
13 °C 32 km 18.000 ft 150°   150° 13 kt METAR CYEG 181700Z 15013KT 20SM FEW052 SCT130 BKN180 BKN220 13/M00 A2978 RMK CU1AC3AC2CI2 CU TR CS ASOCTD SLP100 DENSITY ALT 2900FT
10:00
V
11 °C 32 km 22.000 ft 160°   160° 7 kt METAR CYEG 181600Z 16007KT 130V210 20SM FEW080 SCT160 BKN220 11/M00 A2984 RMK AC1AC3CI4 LWR AC TR CS ASOCTD PRESFR SLP119 DENSITY ALT 2600FT
09:00
V
8 °C 32 km 22.000 ft 210°   210° 4 kt METAR CYEG 181500Z 21004KT 180V270 20SM FEW080 FEW150 BKN220 08/01 A2989 RMK AC1AC2CI5 LWR AC TR CS ASOCTD SLP137
08:00
V
7 °C 32 km 22.000 ft 260°   260° 7 kt METAR CYEG 181400Z 26007KT 20SM FEW080 SCT150 BKN220 07/02 A2993 RMK AC1AC3CS4 LWR AC TR SLP151
07:00
V
3 °C 32 km - 230°   230° 5 kt METAR CYEG 181300Z 23005KT 20SM FEW080 FEW150 SCT250 03/01 A2995 RMK AC1AC1CI4 AC TR AC TR SLP162
06:00
V
0 °C 32 km - 210°   210° 5 kt METAR CYEG 181200Z 21005KT 20SM FEW080 FEW250 M00/M02 A2996 RMK AC1CI1 AC TR SLP168
05:00
V
1 °C 32 km - 250°   250° 4 kt METAR CYEG 181100Z 25004KT 20SM FEW080 FEW250 01/M01 A2998 RMK AC1CI1 CI TR SLP173
04:00
V
2 °C 32 km - 250°   250° 5 kt METAR CYEG 181000Z 25005KT 20SM FEW080 FEW250 02/M01 A3000 RMK AC1CI1 CI TR SLP177
03:00
V
3 °C 32 km - 230°   230° 5 kt METAR CYEG 180900Z 23005KT 180V240 20SM FEW080 FEW250 03/M01 A3000 RMK AC1CI1 AC TR CI TR SLP177
02:26
V
2 °C 32 km - 250°   250° 2 kt METAR CYEG 180826Z 25002KT 20SM FEW080 FEW150 FEW250 02/M01 A3000 RMK AC1AC1CI1 AC TR AC TR CI TR SLP180
02:00
V
4 °C 32 km - 260°   260° 7 kt METAR CYEG 180800Z 26007KT 20SM FEW080 FEW150 FEW250 04/M01 A3001 RMK AC1AC1CI1 CI TR SLP180
01:00
V
5 °C 32 km - 270°   270° 7 kt METAR CYEG 180700Z 27007KT 20SM FEW080 05/00 A3001 RMK AC1 SLP180
00:00
V
6 °C 32 km - 260°   260° 6 kt METAR CYEG 180600Z 26006KT 20SM FEW080 FEW150 06/M01 A3001 RMK AC1AC2 AC TR SLP179

17 de maio de 2022

Tempo Código Clima Temp. Visão Nuvens Vento METAR/SPECI
23:00
V
8 °C 32 km 8.300 ft 280°   280° 8 kt METAR CYEG 180500Z 28008KT 230V290 20SM BKN083 BKN140 08/M02 A3000 RMK AC6AS1 AC INVDG FM NW SLP177
22:00
V
10 °C 32 km 25.000 ft 340°   340° 3 kt METAR CYEG 180400Z 34003KT 20SM FEW075 FEW090 SCT140 BKN250 10/M03 A2999 RMK AC1AC1AS3CI1 AC TR VIRGA SW-W SLP171
21:00
V
12 °C 32 km 9.000 ft 360°   360° 8 kt METAR CYEG 180300Z 36008KT 20SM SCT075 BKN090 BKN250 12/M03 A2998 RMK AC4AC3CI1 CI TR VIRGA ALQDS SLP166 DENSITY ALT 2500FT
20:00
V
13 °C 32 km 9.000 ft Var   Var 11 kt METAR CYEG 180200Z VRB11KT 20SM SCT072 OVC090 13/M02 A2998 RMK AC3AC5 VIRGA ALQDS SLP168 DENSITY ALT 2600FT
19:00
V
14 °C 32 km 7.500 ft 320°   320° 11 16 kt METAR CYEG 180100Z 32011G16KT 260V330 20SM BKN075 OVC090 14/M03 A2996 RMK AC5AC3 VIRGA ALQDS SLP160 DENSITY ALT 2800FT
18:00
V
14 °C 32 km 7.700 ft 350°   350° 7 kt METAR CYEG 180000Z 35007KT 280V020 20SM BKN077 OVC100 14/M03 A2995 RMK CU6AS2 VIRGA PTCHS SLP157 DENSITY ALT 2800FT
17:00
V
14 °C 32 km 12.000 ft 290°   290° 7 15 kt METAR CYEG 172300Z 29007G15KT 270V360 20SM FEW074 OVC120 14/M03 A2995 RMK CU2AS6 VIRGA W QUAD SLP156 DENSITY ALT 2800FT
16:00
V
14 °C 32 km 15.000 ft 010°   010° 8 16 kt METAR CYEG 172200Z 01008G16KT 300V030 20SM FEW074 OVC150 14/M03 A2995 RMK CU2AS6 SLP155 DENSITY ALT 2900FT
15:00
V
15 °C 32 km 25.000 ft 360°   360° 11 kt METAR CYEG 172100Z 36011KT 20SM FEW074 BKN250 15/M03 A2995 RMK CU1CS6 SLP156 DENSITY ALT 2900FT
14:00
V
14 °C 32 km 25.000 ft 340°   340° 12 20 kt METAR CYEG 172000Z 34012G20KT 310V020 20SM FEW074 FEW110 BKN250 14/M03 A2995 RMK CU1AC1CS6 AC TR SLP155 DENSITY ALT 2900FT
13:00
V
14 °C 32 km 25.000 ft 010°   010° 13 kt METAR CYEG 171900Z 01013KT 330V040 20SM FEW060 FEW110 BKN250 14/M01 A2996 RMK CU2AC1CI4 AC TR SLP159 DENSITY ALT 2900FT
12:00
V
13 °C 32 km 25.000 ft 010°   010° 12 19 kt METAR CYEG 171800Z 01012G19KT 20SM SCT056 SCT110 BKN250 13/M01 A2997 RMK CU3AC1CI4 AC TR SLP162 DENSITY ALT 2600FT
11:00
V
12 °C 32 km 25.000 ft 330°   330° 13 kt METAR CYEG 171700Z 33013KT 20SM FEW048 FEW110 BKN250 12/01 A2997 RMK CU1AC1CI6 AC TR SLP163 DENSITY ALT 2600FT
10:00
V
11 °C 32 km 25.000 ft 340°   340° 15 kt METAR CYEG 171600Z 34015KT 20SM FEW010 FEW036 FEW110 FEW130 BKN250 11/02 A2997 RMK SC1CU1AC1AC1CI5 SC TR CU TR LWR AC TR VIRGA SE QUAD SLP163 DENSITY ALT 2400FT
09:00
V
10 °C 32 km 25.000 ft 310°   310° 11 17 kt METAR CYEG 171500Z 31011G17KT 20SM FEW010 FEW110 SCT130 BKN250 10/03 A2996 RMK SC1AC1AC3CI3 SC TR AC TR SLP161
Dados mais antigos

Baixe nosso aplicativo

Fácil acesso a todas as condições meteorológicas da aviação no seu celular e no seu tablet.
Com muitos recursos não disponíveis no site, como suporte offline e uma lista pessoal de aeroportos.

Nós e terceiros acompanhamos seu comportamento na internet em nosso site com cookies. Se você continuar, nós assumimos que você concorda com nossa política de cookies. Saiba mais